sensor_id;sensor_type;location;lat;lon;timestamp;temperature;humidity
11762;DHT22;5938;47.098;15.474;2023-11-19T00:00:42;2.20;99.90
11762;DHT22;5938;47.098;15.474;2023-11-19T00:04:54;2.20;99.90
11762;DHT22;5938;47.098;15.474;2023-11-19T00:08:59;2.20;99.90
11762;DHT22;5938;47.098;15.474;2023-11-19T00:13:03;2.30;99.90
11762;DHT22;5938;47.098;15.474;2023-11-19T00:17:07;2.20;99.90
11762;DHT22;5938;47.098;15.474;2023-11-19T00:21:10;2.20;99.90
11762;DHT22;5938;47.098;15.474;2023-11-19T00:25:15;2.30;99.90
11762;DHT22;5938;47.098;15.474;2023-11-19T00:29:19;2.30;99.90
11762;DHT22;5938;47.098;15.474;2023-11-19T00:33:23;2.40;99.90
11762;DHT22;5938;47.098;15.474;2023-11-19T00:37:26;2.50;99.90
11762;DHT22;5938;47.098;15.474;2023-11-19T00:41:32;2.50;99.90
11762;DHT22;5938;47.098;15.474;2023-11-19T00:45:36;2.50;99.90
11762;DHT22;5938;47.098;15.474;2023-11-19T00:49:40;2.60;99.90
11762;DHT22;5938;47.098;15.474;2023-11-19T00:53:44;2.60;99.90
11762;DHT22;5938;47.098;15.474;2023-11-19T00:57:49;2.70;99.90
11762;DHT22;5938;47.098;15.474;2023-11-19T01:01:53;2.70;99.90
11762;DHT22;5938;47.098;15.474;2023-11-19T01:05:56;2.60;99.90
11762;DHT22;5938;47.098;15.474;2023-11-19T01:10:02;2.70;99.90
11762;DHT22;5938;47.098;15.474;2023-11-19T01:14:07;2.70;99.90
11762;DHT22;5938;47.098;15.474;2023-11-19T01:18:10;2.60;99.90
11762;DHT22;5938;47.098;15.474;2023-11-19T01:22:14;2.70;99.90
11762;DHT22;5938;47.098;15.474;2023-11-19T01:26:19;2.70;99.90
11762;DHT22;5938;47.098;15.474;2023-11-19T01:30:24;2.80;99.90
11762;DHT22;5938;47.098;15.474;2023-11-19T01:34:28;2.80;99.90
11762;DHT22;5938;47.098;15.474;2023-11-19T01:38:32;2.80;99.90
11762;DHT22;5938;47.098;15.474;2023-11-19T01:42:36;2.70;99.90
11762;DHT22;5938;47.098;15.474;2023-11-19T01:46:43;2.70;99.90
11762;DHT22;5938;47.098;15.474;2023-11-19T01:50:48;2.60;99.90
11762;DHT22;5938;47.098;15.474;2023-11-19T01:55:03;2.50;99.90
11762;DHT22;5938;47.098;15.474;2023-11-19T01:59:07;2.60;99.90
11762;DHT22;5938;47.098;15.474;2023-11-19T02:03:13;2.50;99.90
11762;DHT22;5938;47.098;15.474;2023-11-19T02:07:17;2.50;99.90
11762;DHT22;5938;47.098;15.474;2023-11-19T02:11:21;2.50;99.90
11762;DHT22;5938;47.098;15.474;2023-11-19T02:15:24;2.60;99.90
11762;DHT22;5938;47.098;15.474;2023-11-19T02:19:29;2.50;99.90
11762;DHT22;5938;47.098;15.474;2023-11-19T02:23:33;2.40;99.90
11762;DHT22;5938;47.098;15.474;2023-11-19T02:27:53;2.30;99.90
11762;DHT22;5938;47.098;15.474;2023-11-19T02:31:58;2.30;99.90
11762;DHT22;5938;47.098;15.474;2023-11-19T02:36:04;2.30;99.90
11762;DHT22;5938;47.098;15.474;2023-11-19T02:40:09;2.30;99.90
11762;DHT22;5938;47.098;15.474;2023-11-19T02:44:14;2.30;99.90
11762;DHT22;5938;47.098;15.474;2023-11-19T02:48:17;2.30;99.90
11762;DHT22;5938;47.098;15.474;2023-11-19T02:52:21;2.30;99.90
11762;DHT22;5938;47.098;15.474;2023-11-19T02:56:25;2.30;99.90
11762;DHT22;5938;47.098;15.474;2023-11-19T03:00:29;2.30;99.90
11762;DHT22;5938;47.098;15.474;2023-11-19T03:04:42;2.30;99.90
11762;DHT22;5938;47.098;15.474;2023-11-19T03:08:46;2.30;99.90
11762;DHT22;5938;47.098;15.474;2023-11-19T03:12:50;2.40;99.90
11762;DHT22;5938;47.098;15.474;2023-11-19T03:16:54;2.30;99.90
11762;DHT22;5938;47.098;15.474;2023-11-19T03:20:58;2.20;99.90
11762;DHT22;5938;47.098;15.474;2023-11-19T03:25:02;2.30;99.90
11762;DHT22;5938;47.098;15.474;2023-11-19T03:29:06;2.40;99.90
11762;DHT22;5938;47.098;15.474;2023-11-19T03:33:11;2.40;99.90
11762;DHT22;5938;47.098;15.474;2023-11-19T03:37:14;2.50;99.90
11762;DHT22;5938;47.098;15.474;2023-11-19T03:41:19;2.50;99.90
11762;DHT22;5938;47.098;15.474;2023-11-19T03:45:23;2.50;99.90
11762;DHT22;5938;47.098;15.474;2023-11-19T03:49:28;2.40;99.90
11762;DHT22;5938;47.098;15.474;2023-11-19T03:53:32;2.40;99.90
11762;DHT22;5938;47.098;15.474;2023-11-19T03:57:35;2.40;99.90
11762;DHT22;5938;47.098;15.474;2023-11-19T04:01:40;2.40;99.90
11762;DHT22;5938;47.098;15.474;2023-11-19T04:05:44;2.40;99.90
11762;DHT22;5938;47.098;15.474;2023-11-19T04:09:48;2.50;99.90
11762;DHT22;5938;47.098;15.474;2023-11-19T04:13:52;2.40;99.90
11762;DHT22;5938;47.098;15.474;2023-11-19T04:17:56;2.40;99.90
11762;DHT22;5938;47.098;15.474;2023-11-19T04:22:01;2.30;99.90
11762;DHT22;5938;47.098;15.474;2023-11-19T04:26:05;2.20;99.90
11762;DHT22;5938;47.098;15.474;2023-11-19T04:30:12;2.20;99.90
11762;DHT22;5938;47.098;15.474;2023-11-19T04:34:15;2.30;99.90
11762;DHT22;5938;47.098;15.474;2023-11-19T04:38:20;2.30;99.90
11762;DHT22;5938;47.098;15.474;2023-11-19T04:42:23;2.20;99.90
11762;DHT22;5938;47.098;15.474;2023-11-19T04:46:27;2.20;99.90
11762;DHT22;5938;47.098;15.474;2023-11-19T04:50:31;2.10;99.90
11762;DHT22;5938;47.098;15.474;2023-11-19T04:54:36;2.00;99.90
11762;DHT22;5938;47.098;15.474;2023-11-19T04:58:43;1.90;99.90
11762;DHT22;5938;47.098;15.474;2023-11-19T05:02:46;1.80;99.90
11762;DHT22;5938;47.098;15.474;2023-11-19T05:06:50;1.60;99.90
11762;DHT22;5938;47.098;15.474;2023-11-19T05:10:55;1.40;99.90
11762;DHT22;5938;47.098;15.474;2023-11-19T05:14:59;1.30;99.90
11762;DHT22;5938;47.098;15.474;2023-11-19T05:19:03;1.20;99.90
11762;DHT22;5938;47.098;15.474;2023-11-19T05:23:06;1.10;99.90
11762;DHT22;5938;47.098;15.474;2023-11-19T05:27:24;1.10;99.90
11762;DHT22;5938;47.098;15.474;2023-11-19T05:31:29;1.10;99.90
11762;DHT22;5938;47.098;15.474;2023-11-19T05:35:38;1.10;99.90
11762;DHT22;5938;47.098;15.474;2023-11-19T05:39:42;1.20;99.90
11762;DHT22;5938;47.098;15.474;2023-11-19T05:43:47;1.00;99.90
11762;DHT22;5938;47.098;15.474;2023-11-19T05:47:51;1.20;99.90
11762;DHT22;5938;47.098;15.474;2023-11-19T05:51:54;1.20;99.90
11762;DHT22;5938;47.098;15.474;2023-11-19T05:55:58;1.40;99.90
11762;DHT22;5938;47.098;15.474;2023-11-19T06:00:08;1.50;99.90
11762;DHT22;5938;47.098;15.474;2023-11-19T06:04:15;1.50;99.90
11762;DHT22;5938;47.098;15.474;2023-11-19T06:08:18;1.70;99.90
11762;DHT22;5938;47.098;15.474;2023-11-19T06:12:23;1.70;99.90
11762;DHT22;5938;47.098;15.474;2023-11-19T06:16:28;1.80;99.90
11762;DHT22;5938;47.098;15.474;2023-11-19T06:20:33;1.90;99.90
11762;DHT22;5938;47.098;15.474;2023-11-19T06:24:42;1.90;99.90
11762;DHT22;5938;47.098;15.474;2023-11-19T06:28:46;2.00;99.90
11762;DHT22;5938;47.098;15.474;2023-11-19T06:32:51;2.10;99.90
11762;DHT22;5938;47.098;15.474;2023-11-19T06:36:54;2.30;99.90
11762;DHT22;5938;47.098;15.474;2023-11-19T06:40:58;2.40;99.90
11762;DHT22;5938;47.098;15.474;2023-11-19T06:45:02;2.60;99.90
11762;DHT22;5938;47.098;15.474;2023-11-19T06:49:07;2.50;99.90
11762;DHT22;5938;47.098;15.474;2023-11-19T06:53:11;2.60;99.90
11762;DHT22;5938;47.098;15.474;2023-11-19T06:57:14;2.60;99.90
11762;DHT22;5938;47.098;15.474;2023-11-19T07:01:18;2.70;99.90
11762;DHT22;5938;47.098;15.474;2023-11-19T07:05:23;2.90;99.90
11762;DHT22;5938;47.098;15.474;2023-11-19T07:09:27;3.10;99.90
11762;DHT22;5938;47.098;15.474;2023-11-19T07:13:30;3.30;99.90
11762;DHT22;5938;47.098;15.474;2023-11-19T07:17:38;3.40;99.90
11762;DHT22;5938;47.098;15.474;2023-11-19T07:21:44;3.40;99.90
11762;DHT22;5938;47.098;15.474;2023-11-19T07:25:48;3.50;99.90
11762;DHT22;5938;47.098;15.474;2023-11-19T07:29:54;3.50;99.90
11762;DHT22;5938;47.098;15.474;2023-11-19T07:33:57;3.60;99.90
11762;DHT22;5938;47.098;15.474;2023-11-19T07:38:02;3.70;99.90
11762;DHT22;5938;47.098;15.474;2023-11-19T07:42:06;3.60;99.90
11762;DHT22;5938;47.098;15.474;2023-11-19T07:46:11;3.60;99.90
11762;DHT22;5938;47.098;15.474;2023-11-19T07:50:15;3.70;99.90
11762;DHT22;5938;47.098;15.474;2023-11-19T07:54:23;3.80;99.90
11762;DHT22;5938;47.098;15.474;2023-11-19T07:58:28;3.80;99.90
11762;DHT22;5938;47.098;15.474;2023-11-19T08:02:33;3.80;99.90
11762;DHT22;5938;47.098;15.474;2023-11-19T08:06:36;3.80;99.90
11762;DHT22;5938;47.098;15.474;2023-11-19T08:10:41;3.70;99.90
11762;DHT22;5938;47.098;15.474;2023-11-19T08:14:45;3.70;99.90
11762;DHT22;5938;47.098;15.474;2023-11-19T08:18:48;3.70;99.90
11762;DHT22;5938;47.098;15.474;2023-11-19T08:22:54;3.80;99.90
11762;DHT22;5938;47.098;15.474;2023-11-19T08:27:01;4.00;99.90
11762;DHT22;5938;47.098;15.474;2023-11-19T08:31:05;4.40;99.90
11762;DHT22;5938;47.098;15.474;2023-11-19T08:35:09;4.60;99.90
11762;DHT22;5938;47.098;15.474;2023-11-19T08:39:12;4.60;99.90
11762;DHT22;5938;47.098;15.474;2023-11-19T08:43:18;4.70;99.90
11762;DHT22;5938;47.098;15.474;2023-11-19T08:47:22;4.90;99.90
11762;DHT22;5938;47.098;15.474;2023-11-19T08:51:27;4.80;99.90
11762;DHT22;5938;47.098;15.474;2023-11-19T08:55:30;4.80;99.90
11762;DHT22;5938;47.098;15.474;2023-11-19T08:59:35;4.80;99.90
11762;DHT22;5938;47.098;15.474;2023-11-19T09:03:39;4.70;99.90
11762;DHT22;5938;47.098;15.474;2023-11-19T09:07:43;4.50;99.90
11762;DHT22;5938;47.098;15.474;2023-11-19T09:11:47;4.60;99.90
11762;DHT22;5938;47.098;15.474;2023-11-19T09:15:52;4.90;99.90
11762;DHT22;5938;47.098;15.474;2023-11-19T09:19:56;5.60;99.90
11762;DHT22;5938;47.098;15.474;2023-11-19T09:24:00;6.10;99.90
11762;DHT22;5938;47.098;15.474;2023-11-19T09:28:04;6.20;99.60
11762;DHT22;5938;47.098;15.474;2023-11-19T09:32:08;6.50;98.70
11762;DHT22;5938;47.098;15.474;2023-11-19T09:36:13;6.60;98.70
11762;DHT22;5938;47.098;15.474;2023-11-19T09:40:19;7.00;97.80
11762;DHT22;5938;47.098;15.474;2023-11-19T09:44:22;8.20;95.70
11762;DHT22;5938;47.098;15.474;2023-11-19T09:48:33;8.90;94.10
11762;DHT22;5938;47.098;15.474;2023-11-19T09:52:40;10.50;91.30
11762;DHT22;5938;47.098;15.474;2023-11-19T09:56:44;10.00;91.30
11762;DHT22;5938;47.098;15.474;2023-11-19T10:00:50;10.10;91.10
11762;DHT22;5938;47.098;15.474;2023-11-19T10:05:28;10.60;91.20
11762;DHT22;5938;47.098;15.474;2023-11-19T10:09:33;11.80;87.50
11762;DHT22;5938;47.098;15.474;2023-11-19T10:13:37;10.60;89.00
11762;DHT22;5938;47.098;15.474;2023-11-19T10:17:42;9.60;91.40
11762;DHT22;5938;47.098;15.474;2023-11-19T10:21:47;8.80;91.80
11762;DHT22;5938;47.098;15.474;2023-11-19T10:25:53;9.10;92.10
11762;DHT22;5938;47.098;15.474;2023-11-19T10:30:33;10.50;89.70
11762;DHT22;5938;47.098;15.474;2023-11-19T10:35:07;11.30;87.60
11762;DHT22;5938;47.098;15.474;2023-11-19T10:39:16;11.10;87.90
11762;DHT22;5938;47.098;15.474;2023-11-19T10:43:22;13.30;84.70
11762;DHT22;5938;47.098;15.474;2023-11-19T10:47:26;14.50;80.00
11762;DHT22;5938;47.098;15.474;2023-11-19T10:51:42;14.90;79.70
11762;DHT22;5938;47.098;15.474;2023-11-19T10:55:51;15.40;77.30
11762;DHT22;5938;47.098;15.474;2023-11-19T11:00:02;16.10;76.80
11762;DHT22;5938;47.098;15.474;2023-11-19T11:04:15;17.60;71.40
11762;DHT22;5938;47.098;15.474;2023-11-19T11:08:37;17.80;69.60
11762;DHT22;5938;47.098;15.474;2023-11-19T11:12:44;17.60;68.70
11762;DHT22;5938;47.098;15.474;2023-11-19T11:17:09;19.10;66.60
11762;DHT22;5938;47.098;15.474;2023-11-19T11:21:17;20.60;63.30
11762;DHT22;5938;47.098;15.474;2023-11-19T11:25:34;21.60;61.50
11762;DHT22;5938;47.098;15.474;2023-11-19T11:29:54;21.40;61.30
11762;DHT22;5938;47.098;15.474;2023-11-19T11:34:41;21.60;60.60
11762;DHT22;5938;47.098;15.474;2023-11-19T11:38:49;21.60;60.50
11762;DHT22;5938;47.098;15.474;2023-11-19T11:42:53;20.20;60.10
11762;DHT22;5938;47.098;15.474;2023-11-19T11:46:57;16.30;67.50
11762;DHT22;5938;47.098;15.474;2023-11-19T11:51:02;13.90;74.20
11762;DHT22;5938;47.098;15.474;2023-11-19T11:55:08;12.10;79.10
11762;DHT22;5938;47.098;15.474;2023-11-19T11:59:19;10.90;83.30
11762;DHT22;5938;47.098;15.474;2023-11-19T12:03:26;10.20;85.30
11762;DHT22;5938;47.098;15.474;2023-11-19T12:07:31;9.80;90.40
11762;DHT22;5938;47.098;15.474;2023-11-19T12:11:36;11.00;86.70
11762;DHT22;5938;47.098;15.474;2023-11-19T12:16:07;15.10;78.70
11762;DHT22;5938;47.098;15.474;2023-11-19T12:20:12;19.20;70.20
11762;DHT22;5938;47.098;15.474;2023-11-19T12:24:16;22.30;62.10
11762;DHT22;5938;47.098;15.474;2023-11-19T12:28:21;22.70;60.80
11762;DHT22;5938;47.098;15.474;2023-11-19T12:32:27;21.80;61.70
11762;DHT22;5938;47.098;15.474;2023-11-19T12:36:41;23.80;58.10
11762;DHT22;5938;47.098;15.474;2023-11-19T12:40:45;25.10;56.60
11762;DHT22;5938;47.098;15.474;2023-11-19T12:44:55;25.90;54.20
11762;DHT22;5938;47.098;15.474;2023-11-19T12:49:04;26.60;50.20
11762;DHT22;5938;47.098;15.474;2023-11-19T12:53:09;26.90;49.50
11762;DHT22;5938;47.098;15.474;2023-11-19T12:57:13;24.80;51.40
11762;DHT22;5938;47.098;15.474;2023-11-19T13:01:17;23.00;54.40
11762;DHT22;5938;47.098;15.474;2023-11-19T13:05:27;19.40;60.50
11762;DHT22;5938;47.098;15.474;2023-11-19T13:09:32;17.00;67.10
11762;DHT22;5938;47.098;15.474;2023-11-19T13:13:54;14.90;71.50
11762;DHT22;5938;47.098;15.474;2023-11-19T13:18:02;12.70;77.00
11762;DHT22;5938;47.098;15.474;2023-11-19T13:22:06;11.50;81.10
11762;DHT22;5938;47.098;15.474;2023-11-19T13:26:11;10.50;82.90
11762;DHT22;5938;47.098;15.474;2023-11-19T13:30:16;10.10;85.80
11762;DHT22;5938;47.098;15.474;2023-11-19T13:34:22;9.60;89.10
11762;DHT22;5938;47.098;15.474;2023-11-19T13:38:26;9.30;90.80
11762;DHT22;5938;47.098;15.474;2023-11-19T13:42:31;9.00;91.40
11762;DHT22;5938;47.098;15.474;2023-11-19T13:46:34;8.90;91.80
11762;DHT22;5938;47.098;15.474;2023-11-19T13:50:38;8.70;92.60
11762;DHT22;5938;47.098;15.474;2023-11-19T13:54:41;8.40;93.60
11762;DHT22;5938;47.098;15.474;2023-11-19T13:58:46;8.30;93.60
11762;DHT22;5938;47.098;15.474;2023-11-19T14:02:49;8.20;94.30
11762;DHT22;5938;47.098;15.474;2023-11-19T14:06:55;8.10;94.70
11762;DHT22;5938;47.098;15.474;2023-11-19T14:10:59;8.00;95.10
11762;DHT22;5938;47.098;15.474;2023-11-19T14:15:07;7.80;96.00
11762;DHT22;5938;47.098;15.474;2023-11-19T14:19:11;7.40;97.40
11762;DHT22;5938;47.098;15.474;2023-11-19T14:23:16;7.30;98.60
11762;DHT22;5938;47.098;15.474;2023-11-19T14:27:19;7.10;98.90
11762;DHT22;5938;47.098;15.474;2023-11-19T14:31:27;6.90;99.70
11762;DHT22;5938;47.098;15.474;2023-11-19T14:35:31;6.60;99.90
11762;DHT22;5938;47.098;15.474;2023-11-19T14:39:36;6.50;99.90
11762;DHT22;5938;47.098;15.474;2023-11-19T14:43:39;6.40;99.90
11762;DHT22;5938;47.098;15.474;2023-11-19T14:47:44;6.30;99.90
11762;DHT22;5938;47.098;15.474;2023-11-19T14:51:48;6.20;99.90
11762;DHT22;5938;47.098;15.474;2023-11-19T14:55:52;6.10;99.90
11762;DHT22;5938;47.098;15.474;2023-11-19T14:59:57;5.90;99.90
11762;DHT22;5938;47.098;15.474;2023-11-19T15:04:03;5.70;99.90
11762;DHT22;5938;47.098;15.474;2023-11-19T15:08:07;5.50;99.90
11762;DHT22;5938;47.098;15.474;2023-11-19T15:12:12;5.40;99.90
11762;DHT22;5938;47.098;15.474;2023-11-19T15:16:18;5.30;99.90
11762;DHT22;5938;47.098;15.474;2023-11-19T15:20:29;5.10;99.90
11762;DHT22;5938;47.098;15.474;2023-11-19T15:24:34;5.10;99.90
11762;DHT22;5938;47.098;15.474;2023-11-19T15:28:39;5.00;99.90
11762;DHT22;5938;47.098;15.474;2023-11-19T15:32:43;4.80;99.90
11762;DHT22;5938;47.098;15.474;2023-11-19T15:36:48;4.60;99.90
11762;DHT22;5938;47.098;15.474;2023-11-19T15:40:51;4.50;99.90
11762;DHT22;5938;47.098;15.474;2023-11-19T15:44:55;4.40;99.90
11762;DHT22;5938;47.098;15.474;2023-11-19T15:48:59;4.20;99.90
11762;DHT22;5938;47.098;15.474;2023-11-19T15:53:04;4.20;99.90
11762;DHT22;5938;47.098;15.474;2023-11-19T15:57:09;4.10;99.90
11762;DHT22;5938;47.098;15.474;2023-11-19T16:01:12;3.90;99.90
11762;DHT22;5938;47.098;15.474;2023-11-19T16:05:16;3.90;99.90
11762;DHT22;5938;47.098;15.474;2023-11-19T16:09:21;3.80;99.90
11762;DHT22;5938;47.098;15.474;2023-11-19T16:13:29;3.70;99.90
11762;DHT22;5938;47.098;15.474;2023-11-19T16:17:34;3.50;99.90
11762;DHT22;5938;47.098;15.474;2023-11-19T16:21:38;3.40;99.90
11762;DHT22;5938;47.098;15.474;2023-11-19T16:25:44;3.40;99.90
11762;DHT22;5938;47.098;15.474;2023-11-19T16:29:47;3.20;99.90
11762;DHT22;5938;47.098;15.474;2023-11-19T16:33:52;3.20;99.90
11762;DHT22;5938;47.098;15.474;2023-11-19T16:37:59;3.20;99.90
11762;DHT22;5938;47.098;15.474;2023-11-19T16:42:05;3.00;99.90
11762;DHT22;5938;47.098;15.474;2023-11-19T16:46:10;3.00;99.90
11762;DHT22;5938;47.098;15.474;2023-11-19T16:50:14;3.00;99.90
11762;DHT22;5938;47.098;15.474;2023-11-19T16:54:19;2.90;99.90
11762;DHT22;5938;47.098;15.474;2023-11-19T16:58:25;3.00;99.90
11762;DHT22;5938;47.098;15.474;2023-11-19T17:02:31;3.00;99.90
11762;DHT22;5938;47.098;15.474;2023-11-19T17:06:40;2.90;99.90
11762;DHT22;5938;47.098;15.474;2023-11-19T17:10:44;2.90;99.90
11762;DHT22;5938;47.098;15.474;2023-11-19T17:14:50;2.80;99.90
11762;DHT22;5938;47.098;15.474;2023-11-19T17:18:56;2.70;99.90
11762;DHT22;5938;47.098;15.474;2023-11-19T17:23:01;2.50;99.90
11762;DHT22;5938;47.098;15.474;2023-11-19T17:27:07;2.50;99.90
11762;DHT22;5938;47.098;15.474;2023-11-19T17:31:12;2.30;99.90
11762;DHT22;5938;47.098;15.474;2023-11-19T17:35:17;2.20;99.90
11762;DHT22;5938;47.098;15.474;2023-11-19T17:39:21;2.30;99.90
11762;DHT22;5938;47.098;15.474;2023-11-19T17:43:26;2.20;99.90
11762;DHT22;5938;47.098;15.474;2023-11-19T17:47:32;2.20;99.90
11762;DHT22;5938;47.098;15.474;2023-11-19T17:51:37;2.10;99.90
11762;DHT22;5938;47.098;15.474;2023-11-19T17:55:41;2.10;99.90
11762;DHT22;5938;47.098;15.474;2023-11-19T17:59:49;2.20;99.90
11762;DHT22;5938;47.098;15.474;2023-11-19T18:03:55;2.10;99.90
11762;DHT22;5938;47.098;15.474;2023-11-19T18:08:00;2.10;99.90
11762;DHT22;5938;47.098;15.474;2023-11-19T18:12:05;1.90;99.90
11762;DHT22;5938;47.098;15.474;2023-11-19T18:16:12;1.80;99.90
11762;DHT22;5938;47.098;15.474;2023-11-19T18:20:19;1.80;99.90
11762;DHT22;5938;47.098;15.474;2023-11-19T18:24:23;1.70;99.90
11762;DHT22;5938;47.098;15.474;2023-11-19T18:28:28;1.70;99.90
11762;DHT22;5938;47.098;15.474;2023-11-19T18:32:34;1.70;99.90
11762;DHT22;5938;47.098;15.474;2023-11-19T18:36:43;1.50;99.90
11762;DHT22;5938;47.098;15.474;2023-11-19T18:40:49;1.50;99.90
11762;DHT22;5938;47.098;15.474;2023-11-19T18:44:55;1.40;99.90
11762;DHT22;5938;47.098;15.474;2023-11-19T18:49:04;1.40;99.90
11762;DHT22;5938;47.098;15.474;2023-11-19T18:53:13;1.40;99.90
11762;DHT22;5938;47.098;15.474;2023-11-19T18:57:19;1.40;99.90
11762;DHT22;5938;47.098;15.474;2023-11-19T19:01:26;1.30;99.90
11762;DHT22;5938;47.098;15.474;2023-11-19T19:05:34;1.30;99.90
11762;DHT22;5938;47.098;15.474;2023-11-19T19:09:42;1.20;99.90
11762;DHT22;5938;47.098;15.474;2023-11-19T19:13:49;1.10;99.90
11762;DHT22;5938;47.098;15.474;2023-11-19T19:17:55;1.20;99.90
11762;DHT22;5938;47.098;15.474;2023-11-19T19:22:01;1.10;99.90
11762;DHT22;5938;47.098;15.474;2023-11-19T19:26:09;1.00;99.90
11762;DHT22;5938;47.098;15.474;2023-11-19T19:30:14;1.00;99.90
11762;DHT22;5938;47.098;15.474;2023-11-19T19:34:20;0.90;99.90
11762;DHT22;5938;47.098;15.474;2023-11-19T19:38:24;0.90;99.90
11762;DHT22;5938;47.098;15.474;2023-11-19T19:42:33;0.80;99.90
11762;DHT22;5938;47.098;15.474;2023-11-19T19:46:37;0.70;99.90
11762;DHT22;5938;47.098;15.474;2023-11-19T19:50:40;0.70;99.90
11762;DHT22;5938;47.098;15.474;2023-11-19T19:54:45;0.70;99.90
11762;DHT22;5938;47.098;15.474;2023-11-19T19:58:51;0.80;99.90
11762;DHT22;5938;47.098;15.474;2023-11-19T20:02:57;0.50;99.90
11762;DHT22;5938;47.098;15.474;2023-11-19T20:07:02;0.50;99.90
11762;DHT22;5938;47.098;15.474;2023-11-19T20:11:06;0.50;99.90
11762;DHT22;5938;47.098;15.474;2023-11-19T20:15:13;0.60;99.90
11762;DHT22;5938;47.098;15.474;2023-11-19T20:19:19;0.60;99.90
11762;DHT22;5938;47.098;15.474;2023-11-19T20:23:23;0.60;99.90
11762;DHT22;5938;47.098;15.474;2023-11-19T20:27:31;0.50;99.90
11762;DHT22;5938;47.098;15.474;2023-11-19T20:31:39;0.60;99.90
11762;DHT22;5938;47.098;15.474;2023-11-19T20:35:44;0.60;99.90
11762;DHT22;5938;47.098;15.474;2023-11-19T20:39:48;0.50;99.90
11762;DHT22;5938;47.098;15.474;2023-11-19T20:43:52;0.50;99.90
11762;DHT22;5938;47.098;15.474;2023-11-19T20:47:58;0.50;99.90
11762;DHT22;5938;47.098;15.474;2023-11-19T20:52:02;0.00;99.90
11762;DHT22;5938;47.098;15.474;2023-11-19T20:56:06;0.60;99.90
11762;DHT22;5938;47.098;15.474;2023-11-19T21:00:11;0.60;99.90
11762;DHT22;5938;47.098;15.474;2023-11-19T21:04:16;0.50;99.90
11762;DHT22;5938;47.098;15.474;2023-11-19T21:08:20;0.50;99.90
11762;DHT22;5938;47.098;15.474;2023-11-19T21:12:25;0.20;99.90
11762;DHT22;5938;47.098;15.474;2023-11-19T21:16:29;0.40;99.90
11762;DHT22;5938;47.098;15.474;2023-11-19T21:20:34;0.50;99.90
11762;DHT22;5938;47.098;15.474;2023-11-19T21:24:38;0.70;99.90
11762;DHT22;5938;47.098;15.474;2023-11-19T21:28:42;0.20;99.90
11762;DHT22;5938;47.098;15.474;2023-11-19T21:32:45;0.40;99.90
11762;DHT22;5938;47.098;15.474;2023-11-19T21:36:50;0.40;99.90
11762;DHT22;5938;47.098;15.474;2023-11-19T21:40:54;0.40;99.90
11762;DHT22;5938;47.098;15.474;2023-11-19T21:44:57;0.40;99.90
11762;DHT22;5938;47.098;15.474;2023-11-19T21:49:00;0.00;99.90
11762;DHT22;5938;47.098;15.474;2023-11-19T21:53:06;0.40;99.90
11762;DHT22;5938;47.098;15.474;2023-11-19T21:57:09;0.40;99.90
11762;DHT22;5938;47.098;15.474;2023-11-19T22:01:13;0.30;99.90
11762;DHT22;5938;47.098;15.474;2023-11-19T22:05:20;0.20;99.90
11762;DHT22;5938;47.098;15.474;2023-11-19T22:09:25;-0.20;99.90
11762;DHT22;5938;47.098;15.474;2023-11-19T22:13:29;0.20;99.90
11762;DHT22;5938;47.098;15.474;2023-11-19T22:17:32;0.00;99.90
11762;DHT22;5938;47.098;15.474;2023-11-19T22:21:38;0.10;99.90
11762;DHT22;5938;47.098;15.474;2023-11-19T22:25:43;0.30;99.90
11762;DHT22;5938;47.098;15.474;2023-11-19T22:29:47;0.10;99.90
11762;DHT22;5938;47.098;15.474;2023-11-19T22:33:50;0.30;99.90
11762;DHT22;5938;47.098;15.474;2023-11-19T22:37:55;0.40;99.90
11762;DHT22;5938;47.098;15.474;2023-11-19T22:42:00;0.50;99.90
11762;DHT22;5938;47.098;15.474;2023-11-19T22:46:04;0.40;99.90
11762;DHT22;5938;47.098;15.474;2023-11-19T22:50:10;0.50;99.90
11762;DHT22;5938;47.098;15.474;2023-11-19T22:54:13;0.50;99.90
11762;DHT22;5938;47.098;15.474;2023-11-19T22:58:19;0.50;99.90
11762;DHT22;5938;47.098;15.474;2023-11-19T23:02:24;0.50;99.90
11762;DHT22;5938;47.098;15.474;2023-11-19T23:06:27;0.60;99.90
11762;DHT22;5938;47.098;15.474;2023-11-19T23:10:31;0.60;99.90
11762;DHT22;5938;47.098;15.474;2023-11-19T23:14:36;0.50;99.90
11762;DHT22;5938;47.098;15.474;2023-11-19T23:18:40;0.50;99.90
11762;DHT22;5938;47.098;15.474;2023-11-19T23:22:44;0.30;99.90
11762;DHT22;5938;47.098;15.474;2023-11-19T23:26:49;0.40;99.90
11762;DHT22;5938;47.098;15.474;2023-11-19T23:30:54;0.50;99.90
11762;DHT22;5938;47.098;15.474;2023-11-19T23:34:57;0.50;99.90
11762;DHT22;5938;47.098;15.474;2023-11-19T23:39:00;0.30;99.90
11762;DHT22;5938;47.098;15.474;2023-11-19T23:43:04;0.40;99.90
11762;DHT22;5938;47.098;15.474;2023-11-19T23:47:09;0.40;99.90
11762;DHT22;5938;47.098;15.474;2023-11-19T23:51:12;0.60;99.90
11762;DHT22;5938;47.098;15.474;2023-11-19T23:55:15;0.50;99.90
11762;DHT22;5938;47.098;15.474;2023-11-19T23:59:20;0.60;99.90
